Flight Track Log - Related Links

Times and Time Zones

All times are in EDT time to prevent confusion due to time zone crossing. See the N960DL flight status page for this flight to view local times or setup timezone preferences in your user account.

Time Position Orientation Groundspeed Altitude Reporting Facility
EDT Latitude Longitude Course Direction KTS MPH feet Rate Location/Type
Sun 06:19:18 AM 38.1167 -85.7333 189° South 199 229 2,500  Level Louisville TRACON
Sun 06:20:29 AM 38.0733 -85.7886 225° Southwest 253 291 5,100 2,727 Climbing Indianapolis Center
Sun 06:21:00 AM 38.0533 -85.9567 234° Southwest  Level FlightAware Approximate
Sun 06:21:30 AM 38.0769 -85.8806 273° West 261 300 8,500  Level Indianapolis Center
Sun 06:22:00 AM 37.9905 -86.0659 233° Southwest  Level FlightAware Approximate
Sun 06:22:30 AM 38.0578 -85.9725 255° West 283 326 10,800  Level Indianapolis Center
Sun 06:23:00 AM 37.9259 -86.1735 233° Southwest  Level FlightAware Approximate
Sun 06:23:30 AM 38.0000 -86.0586 230° Southwest 314 361 12,300  Level Indianapolis Center
Sun 06:24:00 AM 37.8489 -86.2402 189° South  Level FlightAware Approximate
Sun 06:24:31 AM 37.9389 -86.1650 234° Southwest 362 417 14,400  Level Indianapolis Center
Sun 06:25:31 AM 37.8550 -86.2533 220° Southwest 396 456 16,900 2,300 Climbing Indianapolis Center
Sun 06:26:31 AM 37.7303 -86.2781 189° South 406 467 19,000 2,033 Climbing Indianapolis Center
Sun 06:27:32 AM 37.6122 -86.3050 190° South 422 486 21,000 1,934 Climbing Indianapolis Center
Sun 06:28:32 AM 37.4922 -86.3311 190° South 433 498 22,900 1,884 Climbing Indianapolis Center
Sun 06:29:33 AM 37.3706 -86.3575 190° South 437 503 24,800 1,884 Climbing Indianapolis Center
Sun 06:30:33 AM 37.2478 -86.3833 190° South 441 507 26,700 1,700 Climbing Indianapolis Center
Sun 06:31:33 AM 37.1258 -86.4078 189° South 439 505 28,200 1,664 Climbing Indianapolis Center
Sun 06:32:32 AM 37.0050 -86.4292 188° South 448 516 30,000 1,462 Climbing Memphis Center
Sun 06:33:32 AM 36.8844 -86.4403 184° South 442 509 31,100 1,050 Climbing Memphis Center
Sun 06:34:32 AM 36.7739 -86.4353 178° South 442 509 32,100 950 Climbing Memphis Center
Sun 06:35:32 AM 36.6528 -86.4283 177° South 442 509 33,000 450 Climbing Memphis Center
Sun 06:36:32 AM 36.5297 -86.4214 177° South 442 509 33,000  Level Memphis Center
Sun 06:37:32 AM 36.4064 -86.4144 177° South 442 509 33,000  Level Memphis Center
Sun 06:38:32 AM 36.2708 -86.4056 177° South 442 509 33,000  Level Memphis Center
Sun 06:39:32 AM 36.1475 -86.3961 176° South 442 509 33,000  Level Memphis Center
Sun 06:40:32 AM 36.0264 -86.3892 177° South 442 509 33,000  Level Memphis Center
Sun 06:41:32 AM 35.9050 -86.3772 175° South 442 509 33,000  Level Memphis Center
Sun 06:43:20 AM 35.7053 -86.3353 170° South 437 503 33,000  Level Atlanta Center
Sun 06:44:20 AM 35.6025 -86.2481 145° Southeast 432 497 33,000  Level Atlanta Center
Sun 06:45:20 AM 35.5017 -86.1639 146° Southeast 443 510 33,000  Level Atlanta Center
Sun 06:46:20 AM 35.3967 -86.0794 147° Southeast 448 516 33,000  Level Atlanta Center
Sun 06:47:20 AM 35.2836 -85.9853 146° Southeast 448 516 33,000  Level Atlanta Center
Sun 06:48:20 AM 35.1783 -85.9014 147° Southeast 448 516 33,000  Level Atlanta Center
Sun 06:49:20 AM 35.0897 -85.8283 146° Southeast 443 510 33,000  Level Atlanta Center
Sun 06:50:20 AM 34.9908 -85.7475 146° Southeast 443 510 33,000  Level Atlanta Center
Sun 06:51:20 AM 34.8856 -85.6669 148° Southeast 443 510 33,000 -900 Level Atlanta Center
Sun 06:52:20 AM 34.7864 -85.5842 146° Southeast 443 510 31,200 -2,950 Descending Atlanta Center
Sun 06:53:20 AM 34.6831 -85.5014 147° Southeast 443 510 27,100 -3,200 Descending Atlanta Center
Sun 06:54:20 AM 34.5756 -85.4161 147° Southeast 449 517 24,800 -2,300 Descending Atlanta Center
Sun 06:55:20 AM 34.4783 -85.3364 146° Southeast 443 510 22,500 -2,450 Descending Atlanta Center
Sun 06:56:20 AM 34.3769 -85.2544 146° Southeast 419 482 19,900 -2,250 Descending Atlanta Center
Sun 06:57:20 AM 34.2961 -85.1903 147° Southeast 395 455 18,000 -2,150 Descending Atlanta Center
Sun 06:58:20 AM 34.2069 -85.1189 146° Southeast 383 441 15,600 -2,000 Descending Atlanta Center
Sun 06:59:20 AM 34.1219 -85.0525 147° Southeast 377 434 14,000 -1,200 Descending Atlanta Center
Sun 07:00:20 AM 34.0433 -84.9714 139° Southeast 371 427 13,200 -1,000 Descending Atlanta Center
Sun 07:01:20 AM 33.9731 -84.8781 132° Southeast 371 427 12,000 -600 Descending Atlanta Center
Sun 07:02:20 AM 33.9006 -84.7897 135° Southeast 371 427 12,000  Level Atlanta Center
Sun 07:02:52 AM 33.8500 -84.7333 137° Southeast 369 425 12,000  Level Atlanta TRACON
Sun 07:03:58 AM 33.7833 -84.6167 124° Southeast 360 414 12,000 -48 Level Atlanta TRACON
Sun 07:04:58 AM 33.7333 -84.5333 126° Southeast 296 341 11,900 -789 Descending Atlanta TRACON
Sun 07:05:52 AM 33.7333 -84.4667 90° East 273 314 10,500 -1,800 Descending Atlanta TRACON
Sun 07:06:58 AM 33.7333 -84.3667 90° East 254 292 8,300 -2,095 Descending Atlanta TRACON
Sun 07:07:58 AM 33.7333 -84.3000 90° East 236 272 6,100 -2,200 Descending Atlanta TRACON

Login

Don't have an account? Register now (free) for customized features, flight alerts, and more!